createdAt,value
2018-03-22T00:00:57.963Z,933.01
2018-03-22T00:01:57.961Z,933.04
2018-03-22T00:02:57.952Z,933.05
2018-03-22T00:03:57.941Z,933.09
2018-03-22T00:04:57.933Z,933.06
2018-03-22T00:05:57.939Z,933.10
2018-03-22T00:06:57.932Z,933.13
2018-03-22T00:07:57.940Z,933.16
2018-03-22T00:08:57.927Z,933.23
2018-03-22T00:09:57.931Z,933.20
2018-03-22T00:10:57.910Z,933.26
2018-03-22T00:11:57.916Z,933.23
2018-03-22T00:12:57.897Z,933.26
2018-03-22T00:13:57.904Z,933.28
2018-03-22T00:14:57.885Z,933.32
2018-03-22T00:15:57.877Z,933.34
2018-03-22T00:16:57.870Z,933.33
2018-03-22T00:17:57.885Z,933.35
2018-03-22T00:18:57.860Z,933.30
2018-03-22T00:19:57.874Z,933.30
2018-03-22T00:20:57.867Z,933.31
2018-03-22T00:21:57.844Z,933.29
2018-03-22T00:22:57.831Z,933.29
2018-03-22T00:23:57.834Z,933.27
2018-03-22T00:24:57.844Z,933.30
2018-03-22T00:25:57.823Z,933.30
2018-03-22T00:26:57.833Z,933.32
2018-03-22T00:27:57.808Z,933.35
2018-03-22T00:28:57.820Z,933.35
2018-03-22T00:29:57.795Z,933.35
2018-03-22T00:30:57.805Z,933.32
2018-03-22T00:31:57.800Z,933.34
2018-03-22T00:32:57.771Z,933.34
2018-03-22T00:33:57.791Z,933.30
2018-03-22T00:34:57.781Z,933.31
2018-03-22T00:35:57.761Z,933.29
2018-03-22T00:36:57.748Z,933.31
2018-03-22T00:37:57.770Z,933.31
2018-03-22T00:38:57.758Z,933.30
2018-03-22T00:39:57.741Z,933.32
2018-03-22T00:40:57.747Z,933.33
2018-03-22T00:41:57.726Z,933.34
2018-03-22T00:42:57.736Z,933.40
2018-03-22T00:43:57.734Z,933.42
2018-03-22T00:44:57.728Z,933.44
2018-03-22T00:45:57.705Z,933.45
2018-03-22T00:46:57.695Z,933.46
2018-03-22T00:47:57.692Z,933.44
2018-03-22T00:48:57.700Z,933.45
2018-03-22T00:49:57.679Z,933.50
2018-03-22T00:50:57.692Z,933.48
2018-03-22T00:51:57.682Z,933.46
2018-03-22T00:52:57.660Z,933.50
2018-03-22T00:53:57.659Z,933.41
2018-03-22T00:54:57.651Z,933.44
2018-03-22T00:55:57.662Z,933.42
2018-03-22T00:56:57.635Z,933.42
2018-03-22T00:57:57.649Z,933.41
2018-03-22T00:58:57.627Z,933.43
2018-03-22T00:59:57.622Z,933.41
2018-03-22T01:00:57.606Z,933.44
2018-03-22T01:01:57.624Z,933.40
2018-03-22T01:02:57.601Z,933.40
2018-03-22T01:03:57.593Z,933.43
2018-03-22T01:04:57.590Z,933.45
2018-03-22T01:05:57.582Z,933.44
2018-03-22T01:06:57.593Z,933.44
2018-03-22T01:07:57.573Z,933.46
2018-03-22T01:08:57.567Z,933.47
2018-03-22T01:09:57.554Z,933.50
2018-03-22T01:10:57.556Z,933.52
2018-03-22T01:11:57.563Z,933.51
2018-03-22T01:12:57.631Z,933.49
2018-03-22T01:13:57.534Z,933.52
2018-03-22T01:14:57.528Z,933.51
2018-03-22T01:15:57.525Z,933.49
2018-03-22T01:16:57.530Z,933.49
2018-03-22T01:17:57.563Z,933.51
2018-03-22T01:18:57.502Z,933.48
2018-03-22T01:19:57.487Z,933.51
2018-03-22T01:20:57.494Z,933.52
2018-03-22T01:21:57.477Z,933.54
2018-03-22T01:22:57.479Z,933.54
2018-03-22T01:23:57.478Z,933.53
2018-03-22T01:24:57.482Z,933.58
2018-03-22T01:25:57.458Z,933.48
2018-03-22T01:26:57.452Z,933.49
2018-03-22T01:27:57.463Z,933.46
2018-03-22T01:28:57.455Z,933.44
2018-03-22T01:29:57.435Z,933.44
2018-03-22T01:30:57.429Z,933.44
2018-03-22T01:31:57.418Z,933.44
2018-03-22T01:32:57.431Z,933.44
2018-03-22T01:33:57.412Z,933.44
2018-03-22T01:34:57.393Z,933.43
2018-03-22T01:35:57.397Z,933.46
2018-03-22T01:36:57.392Z,933.46
2018-03-22T01:37:57.385Z,933.45
2018-03-22T01:38:57.380Z,933.48
2018-03-22T01:39:57.373Z,933.50
2018-03-22T01:40:57.366Z,933.54
2018-03-22T01:41:57.364Z,933.53
2018-03-22T01:42:57.366Z,933.56
2018-03-22T01:43:57.348Z,933.57
2018-03-22T01:44:57.331Z,933.53
2018-03-22T01:45:57.335Z,933.53
2018-03-22T01:46:57.329Z,933.52
2018-03-22T01:47:57.320Z,933.48
2018-03-22T01:48:57.332Z,933.48
2018-03-22T01:49:57.317Z,933.52
2018-03-22T01:50:57.300Z,933.53
2018-03-22T01:51:57.291Z,933.47
2018-03-22T01:52:57.288Z,933.49
2018-03-22T01:53:57.277Z,933.55
2018-03-22T01:54:57.276Z,933.50
2018-03-22T01:55:57.275Z,933.51
2018-03-22T01:56:57.266Z,933.46
2018-03-22T01:57:57.258Z,933.51
2018-03-22T01:58:57.271Z,933.50
2018-03-22T01:59:57.253Z,933.45
2018-03-22T02:00:57.244Z,933.49
2018-03-22T02:01:57.232Z,933.51
2018-03-22T02:02:57.245Z,933.49
2018-03-22T02:03:57.215Z,933.54
2018-03-22T02:04:57.217Z,933.48
2018-03-22T02:05:57.211Z,933.47
2018-03-22T02:06:57.210Z,933.46
2018-03-22T02:07:57.196Z,933.46
2018-03-22T02:08:57.207Z,933.45
2018-03-22T02:09:57.181Z,933.45
2018-03-22T02:10:57.194Z,933.48
2018-03-22T02:11:57.184Z,933.49
2018-03-22T02:12:57.262Z,933.49
2018-03-22T02:13:57.149Z,933.51
2018-03-22T02:14:57.166Z,933.49
2018-03-22T02:15:57.147Z,933.51
2018-03-22T02:16:57.130Z,933.50
2018-03-22T02:17:57.149Z,933.53
2018-03-22T02:18:57.118Z,933.50
2018-03-22T02:19:57.122Z,933.49
2018-03-22T02:20:57.106Z,933.51
2018-03-22T02:21:57.116Z,933.49
2018-03-22T02:22:57.117Z,933.48
2018-03-22T02:23:57.107Z,933.49
2018-03-22T02:24:57.090Z,933.51
2018-03-22T02:25:57.078Z,933.48
2018-03-22T02:26:57.075Z,933.45
2018-03-22T02:27:57.067Z,933.46
2018-03-22T02:28:57.066Z,933.43
2018-03-22T02:29:57.063Z,933.47
2018-03-22T02:30:57.058Z,933.47
2018-03-22T02:31:57.037Z,933.49
2018-03-22T02:32:57.039Z,933.46
2018-03-22T02:33:57.033Z,933.47
2018-03-22T02:34:57.024Z,933.45
2018-03-22T02:35:57.036Z,933.51
2018-03-22T02:36:57.004Z,933.51
2018-03-22T02:37:57.023Z,933.52
2018-03-22T02:38:57.013Z,933.50
2018-03-22T02:39:56.986Z,933.51
2018-03-22T02:40:56.986Z,933.50
2018-03-22T02:41:56.979Z,933.52
2018-03-22T02:42:56.968Z,933.51
2018-03-22T02:43:56.970Z,933.48
2018-03-22T02:44:56.963Z,933.49
2018-03-22T02:45:56.956Z,933.50
2018-03-22T02:46:56.949Z,933.51
2018-03-22T02:47:56.945Z,933.52
2018-03-22T02:48:56.928Z,933.48
2018-03-22T02:49:56.921Z,933.48
2018-03-22T02:50:56.937Z,933.45
2018-03-22T02:51:56.915Z,933.45
2018-03-22T02:52:56.918Z,933.46
2018-03-22T02:53:56.921Z,933.46
2018-03-22T02:54:56.900Z,933.42
2018-03-22T02:55:56.894Z,933.39
2018-03-22T02:56:56.883Z,933.41
2018-03-22T02:57:56.876Z,933.37
2018-03-22T02:58:56.874Z,933.39
2018-03-22T02:59:56.857Z,933.35
2018-03-22T03:00:56.862Z,933.37
2018-03-22T03:01:56.852Z,933.37
2018-03-22T03:02:56.841Z,933.36
2018-03-22T03:03:56.833Z,933.34
2018-03-22T03:04:56.851Z,933.33
2018-03-22T03:05:56.830Z,933.33
2018-03-22T03:06:56.824Z,933.30
2018-03-22T03:07:56.833Z,933.30
2018-03-22T03:08:56.811Z,933.29
2018-03-22T03:09:56.820Z,933.28
2018-03-22T03:10:56.788Z,933.31
2018-03-22T03:11:56.792Z,933.25
2018-03-22T03:12:56.787Z,933.26
2018-03-22T03:13:56.769Z,933.26
2018-03-22T03:14:56.777Z,933.25
2018-03-22T03:15:56.768Z,933.25
2018-03-22T03:16:56.761Z,933.28
2018-03-22T03:17:56.758Z,933.27
2018-03-22T03:18:56.763Z,933.24
2018-03-22T03:19:56.740Z,933.24
2018-03-22T03:20:56.746Z,933.20
2018-03-22T03:21:56.720Z,933.18
2018-03-22T03:22:56.722Z,933.11
2018-03-22T03:23:56.707Z,933.07
2018-03-22T03:24:56.720Z,933.05
2018-03-22T03:25:56.702Z,933.05
2018-03-22T03:26:56.702Z,933.05
2018-03-22T03:27:56.690Z,933.04
2018-03-22T03:28:56.682Z,933.04
2018-03-22T03:29:56.675Z,933.07
2018-03-22T03:30:56.671Z,933.09
2018-03-22T03:31:56.661Z,933.04
2018-03-22T03:32:56.658Z,933.05
2018-03-22T03:33:56.640Z,933.03
2018-03-22T03:34:56.644Z,933.04
2018-03-22T03:35:56.639Z,933.03
2018-03-22T03:36:56.630Z,933.02
2018-03-22T03:37:56.626Z,933.01
2018-03-22T03:38:56.619Z,932.99
2018-03-22T03:39:56.604Z,932.98
2018-03-22T03:40:56.597Z,932.92
2018-03-22T03:41:56.596Z,932.91
2018-03-22T03:42:56.590Z,932.90
2018-03-22T03:43:56.583Z,932.91
2018-03-22T03:44:56.576Z,932.92
2018-03-22T03:45:56.569Z,932.91
2018-03-22T03:46:56.568Z,932.90
2018-03-22T03:47:56.561Z,932.88
2018-03-22T03:48:56.544Z,932.91
2018-03-22T03:49:56.538Z,932.94
2018-03-22T03:50:56.532Z,932.90
2018-03-22T03:51:56.532Z,932.96
2018-03-22T03:52:56.525Z,932.96
2018-03-22T03:53:56.523Z,932.92
2018-03-22T03:54:56.517Z,932.92
2018-03-22T03:55:56.507Z,932.86
2018-03-22T03:56:56.500Z,932.86
2018-03-22T03:57:56.494Z,932.82
2018-03-22T03:58:56.502Z,932.76
2018-03-22T03:59:56.499Z,932.78
2018-03-22T04:00:56.474Z,932.74
2018-03-22T04:01:56.469Z,932.74
2018-03-22T04:02:56.464Z,932.73
2018-03-22T04:03:56.450Z,932.74
2018-03-22T04:04:56.448Z,932.69
2018-03-22T04:05:56.456Z,932.69
2018-03-22T04:06:56.450Z,932.73
2018-03-22T04:07:56.445Z,932.71
2018-03-22T04:08:56.437Z,932.69
2018-03-22T04:09:56.416Z,932.71
2018-03-22T04:10:56.404Z,932.75
2018-03-22T04:11:56.403Z,932.76
2018-03-22T04:12:56.396Z,932.78
2018-03-22T04:13:56.405Z,932.74
2018-03-22T04:14:56.384Z,932.74
2018-03-22T04:15:56.387Z,932.76
2018-03-22T04:16:56.385Z,932.76
2018-03-22T04:17:56.364Z,932.74
2018-03-22T04:18:56.357Z,932.69
2018-03-22T04:19:56.368Z,932.71
2018-03-22T04:20:56.361Z,932.73
2018-03-22T04:21:56.350Z,932.72
2018-03-22T04:22:56.332Z,932.70
2018-03-22T04:23:56.326Z,932.71
2018-03-22T04:24:56.319Z,932.70
2018-03-22T04:25:56.306Z,932.62
2018-03-22T04:26:56.301Z,932.63
2018-03-22T04:27:56.322Z,932.64
2018-03-22T04:28:56.316Z,932.63
2018-03-22T04:29:56.304Z,932.67
2018-03-22T04:30:56.303Z,932.66
2018-03-22T04:31:56.270Z,932.63
2018-03-22T04:32:56.279Z,932.64
2018-03-22T04:33:56.279Z,932.64
2018-03-22T04:34:56.270Z,932.63
2018-03-22T04:35:56.264Z,932.58
2018-03-22T04:36:56.257Z,932.60
2018-03-22T04:37:56.251Z,932.58
2018-03-22T04:38:56.223Z,932.55
2018-03-22T04:39:56.224Z,932.56
2018-03-22T04:40:56.216Z,932.54
2018-03-22T04:41:56.211Z,932.53
2018-03-22T04:42:56.228Z,932.50
2018-03-22T04:43:56.220Z,932.53
2018-03-22T04:44:56.211Z,932.48
2018-03-22T04:45:56.204Z,932.47
2018-03-22T04:46:56.179Z,932.51
2018-03-22T04:47:56.173Z,932.47
2018-03-22T04:48:56.187Z,932.47
2018-03-22T04:49:56.175Z,932.45
2018-03-22T04:50:56.175Z,932.48
2018-03-22T04:51:56.158Z,932.43
2018-03-22T04:52:56.143Z,932.48
2018-03-22T04:53:56.134Z,932.43
2018-03-22T04:54:56.131Z,932.41
2018-03-22T04:55:56.137Z,932.40
2018-03-22T04:56:56.130Z,932.38
2018-03-22T04:57:56.114Z,932.36
2018-03-22T04:58:56.120Z,932.35
2018-03-22T04:59:56.096Z,932.37
2018-03-22T05:00:56.107Z,932.31
2018-03-22T05:01:56.101Z,932.30
2018-03-22T05:02:56.077Z,932.33
2018-03-22T05:03:56.070Z,932.33
2018-03-22T05:04:56.086Z,932.32
2018-03-22T05:05:56.080Z,932.29
2018-03-22T05:06:56.076Z,932.29
2018-03-22T05:07:56.045Z,932.29
2018-03-22T05:08:56.047Z,932.27
2018-03-22T05:09:56.032Z,932.26
2018-03-22T05:10:56.029Z,932.24
2018-03-22T05:11:56.026Z,932.20
2018-03-22T05:12:56.012Z,932.21
2018-03-22T05:13:56.028Z,932.23
2018-03-22T05:14:56.013Z,932.21
2018-03-22T05:15:56.015Z,932.21
2018-03-22T05:16:55.991Z,932.17
2018-03-22T05:17:56.016Z,932.21
2018-03-22T05:18:55.970Z,932.20
2018-03-22T05:19:55.968Z,932.17
2018-03-22T05:20:55.966Z,932.13
2018-03-22T05:21:55.974Z,932.13
2018-03-22T05:22:55.945Z,932.15
2018-03-22T05:23:55.952Z,932.14
2018-03-22T05:24:55.931Z,932.14
2018-03-22T05:25:55.951Z,932.18
2018-03-22T05:26:55.923Z,932.17
2018-03-22T05:27:55.932Z,932.16
2018-03-22T05:28:55.912Z,932.17
2018-03-22T05:29:55.918Z,932.14
2018-03-22T05:30:55.999Z,932.17
2018-03-22T05:31:55.893Z,932.18
2018-03-22T05:32:55.884Z,932.21
2018-03-22T05:33:55.882Z,932.16
2018-03-22T05:34:55.875Z,932.13
2018-03-22T05:35:55.868Z,932.18
2018-03-22T05:36:55.878Z,932.13
2018-03-22T05:37:55.856Z,932.14
2018-03-22T05:38:55.850Z,932.14
2018-03-22T05:39:55.877Z,932.13
2018-03-22T05:40:55.837Z,932.12
2018-03-22T05:41:55.846Z,932.06
2018-03-22T05:42:55.822Z,932.06
2018-03-22T05:43:55.818Z,932.07
2018-03-22T05:44:55.823Z,932.06
2018-03-22T05:45:55.801Z,932.05
2018-03-22T05:46:55.810Z,932.06
2018-03-22T05:47:55.782Z,932.09
2018-03-22T05:48:55.775Z,932.06
2018-03-22T05:49:55.780Z,932.11
2018-03-22T05:50:55.772Z,932.05
2018-03-22T05:51:55.763Z,932.06
2018-03-22T05:52:55.756Z,932.03
2018-03-22T05:53:55.755Z,932.05
2018-03-22T05:54:55.743Z,932.02
2018-03-22T05:55:55.738Z,932.04
2018-03-22T05:56:55.724Z,932.06
2018-03-22T05:57:55.724Z,932.00
2018-03-22T05:58:55.719Z,932.02
2018-03-22T05:59:55.713Z,931.98
2018-03-22T06:00:55.706Z,931.98
2018-03-22T06:01:55.699Z,931.97
2018-03-22T06:02:55.746Z,931.92
2018-03-22T06:03:55.686Z,931.91
2018-03-22T06:04:55.679Z,931.88
2018-03-22T06:05:55.667Z,931.84
2018-03-22T06:06:55.660Z,931.84
2018-03-22T06:07:55.656Z,931.80
2018-03-22T06:08:55.656Z,931.78
2018-03-22T06:09:55.652Z,931.82
2018-03-22T06:10:55.636Z,931.81
2018-03-22T06:11:55.635Z,931.81
2018-03-22T06:12:55.621Z,931.74
2018-03-22T06:13:55.621Z,931.75
2018-03-22T06:14:55.615Z,931.69
2018-03-22T06:15:55.604Z,931.70
2018-03-22T06:16:55.617Z,931.72
2018-03-22T06:17:55.646Z,931.68
2018-03-22T06:18:55.590Z,931.69
2018-03-22T06:19:55.576Z,931.67
2018-03-22T06:20:55.569Z,931.67
2018-03-22T06:21:55.581Z,931.63
2018-03-22T06:22:55.585Z,931.65
2018-03-22T06:23:55.551Z,931.64
2018-03-22T06:24:55.550Z,931.63
2018-03-22T06:25:55.544Z,931.61
2018-03-22T06:26:55.553Z,931.60
2018-03-22T06:27:55.537Z,931.61
2018-03-22T06:28:55.526Z,931.63
2018-03-22T06:29:55.511Z,931.62
2018-03-22T06:30:55.531Z,931.59
2018-03-22T06:31:55.520Z,931.58
2018-03-22T06:32:55.498Z,931.58
2018-03-22T06:33:55.491Z,931.56
2018-03-22T06:34:55.496Z,931.54
2018-03-22T06:35:55.494Z,931.53
2018-03-22T06:36:55.473Z,931.55
2018-03-22T06:37:55.465Z,931.55
2018-03-22T06:38:55.462Z,931.57
2018-03-22T06:39:55.447Z,931.56
2018-03-22T06:40:55.450Z,931.58
2018-03-22T06:41:55.432Z,931.55
2018-03-22T06:42:55.428Z,931.58
2018-03-22T06:43:55.420Z,931.60
2018-03-22T06:44:55.419Z,931.59
2018-03-22T06:45:55.422Z,931.58
2018-03-22T06:46:55.409Z,931.58
2018-03-22T06:47:55.418Z,931.58
2018-03-22T06:48:55.511Z,931.55
2018-03-22T06:49:55.385Z,931.55
2018-03-22T06:50:55.396Z,931.57
2018-03-22T06:51:55.377Z,931.56
2018-03-22T06:52:55.358Z,931.58
2018-03-22T06:53:55.365Z,931.58
2018-03-22T06:54:55.345Z,931.55
2018-03-22T06:55:55.348Z,931.56
2018-03-22T06:56:55.339Z,931.54
2018-03-22T06:57:55.331Z,931.54
2018-03-22T06:58:55.347Z,931.56
2018-03-22T06:59:55.336Z,931.51
2018-03-22T07:00:55.410Z,931.55
2018-03-22T07:01:55.298Z,931.54
2018-03-22T07:02:55.297Z,931.54
2018-03-22T07:03:55.295Z,931.52
2018-03-22T07:04:55.278Z,931.52
2018-03-22T07:05:55.270Z,931.53
2018-03-22T07:06:55.321Z,931.51
2018-03-22T07:07:55.263Z,931.51
2018-03-22T07:08:55.256Z,931.52
2018-03-22T07:09:55.243Z,931.50
2018-03-22T07:10:55.237Z,931.48
2018-03-22T07:11:55.236Z,931.50
2018-03-22T07:12:55.223Z,931.48
2018-03-22T07:13:55.234Z,931.48
2018-03-22T07:14:55.238Z,931.47
2018-03-22T07:15:55.215Z,931.49
2018-03-22T07:16:55.223Z,931.45
2018-03-22T07:17:55.198Z,931.44
2018-03-22T07:18:55.183Z,931.43
2018-03-22T07:19:55.184Z,931.42
2018-03-22T07:20:55.179Z,931.44
2018-03-22T07:21:55.170Z,931.42
2018-03-22T07:22:55.161Z,931.42
2018-03-22T07:23:55.148Z,931.47
2018-03-22T07:24:55.151Z,931.44
2018-03-22T07:25:55.181Z,931.44
2018-03-22T07:26:55.138Z,931.44
2018-03-22T07:27:55.121Z,931.43
2018-03-22T07:28:55.116Z,931.45
2018-03-22T07:29:55.109Z,931.49
2018-03-22T07:30:55.101Z,931.48
2018-03-22T07:31:55.096Z,931.49
2018-03-22T07:32:55.098Z,931.49
2018-03-22T07:33:55.089Z,931.52
2018-03-22T07:34:55.081Z,931.58
2018-03-22T07:35:55.068Z,931.59
2018-03-22T07:36:55.067Z,931.62
2018-03-22T07:37:55.060Z,931.67
2018-03-22T07:38:55.054Z,931.68
2018-03-22T07:39:55.048Z,931.70
2018-03-22T07:40:55.046Z,931.68
2018-03-22T07:41:55.034Z,931.72
2018-03-22T07:42:55.127Z,931.72
2018-03-22T07:43:55.024Z,931.76
2018-03-22T07:44:55.006Z,931.75
2018-03-22T07:45:55.006Z,931.77
2018-03-22T07:46:54.998Z,931.77
2018-03-22T07:47:54.994Z,931.79
2018-03-22T07:48:55.089Z,931.83
2018-03-22T07:49:54.984Z,931.83
2018-03-22T07:50:54.966Z,931.82
2018-03-22T07:51:54.969Z,931.84
2018-03-22T07:52:54.959Z,931.83
2018-03-22T07:53:54.948Z,931.82
2018-03-22T07:54:54.946Z,931.86
2018-03-22T07:55:54.939Z,931.87
2018-03-22T07:56:54.926Z,931.88
2018-03-22T07:57:54.926Z,931.89
2018-03-22T07:58:54.916Z,931.90
2018-03-22T07:59:54.917Z,931.91
2018-03-22T08:00:54.910Z,931.91
2018-03-22T08:01:54.894Z,931.91
2018-03-22T08:02:54.893Z,931.90
2018-03-22T08:03:54.887Z,931.91
2018-03-22T08:04:54.879Z,931.92
2018-03-22T08:05:54.875Z,931.91
2018-03-22T08:06:54.862Z,931.93
2018-03-22T08:07:54.860Z,931.94
2018-03-22T08:08:54.848Z,931.90
2018-03-22T08:09:54.846Z,931.89
2018-03-22T08:10:54.846Z,931.87
2018-03-22T08:11:54.837Z,931.89
2018-03-22T08:12:54.822Z,931.89
2018-03-22T08:13:54.827Z,931.89
2018-03-22T08:14:54.818Z,931.89
2018-03-22T08:15:54.807Z,931.93
2018-03-22T08:16:54.800Z,931.96
2018-03-22T08:17:54.794Z,931.99
2018-03-22T08:18:54.788Z,931.96
2018-03-22T08:19:54.781Z,932.00
2018-03-22T08:20:54.767Z,932.01
2018-03-22T08:21:54.768Z,931.97
2018-03-22T08:22:54.761Z,932.02
2018-03-22T08:23:54.756Z,932.01
2018-03-22T08:24:54.751Z,932.02
2018-03-22T08:25:54.742Z,932.01
2018-03-22T08:26:54.735Z,932.01
2018-03-22T08:27:54.723Z,932.05
2018-03-22T08:28:54.722Z,932.05
2018-03-22T08:29:54.715Z,932.06
2018-03-22T08:30:54.709Z,932.09
2018-03-22T08:31:54.720Z,932.07
2018-03-22T08:32:54.696Z,932.08
2018-03-22T08:33:54.693Z,932.09
2018-03-22T08:34:54.679Z,932.09
2018-03-22T08:35:54.677Z,932.09
2018-03-22T08:36:54.674Z,932.09
2018-03-22T08:37:54.664Z,932.08
2018-03-22T08:38:54.669Z,932.10
2018-03-22T08:39:54.645Z,932.07
2018-03-22T08:40:54.661Z,932.07
2018-03-22T08:41:54.637Z,932.08
2018-03-22T08:42:54.642Z,932.06
2018-03-22T08:43:54.628Z,932.08
2018-03-22T08:44:54.634Z,932.10
2018-03-22T08:45:54.610Z,932.10
2018-03-22T08:46:54.625Z,932.11
2018-03-22T08:47:54.598Z,932.12
2018-03-22T08:48:54.590Z,932.12
2018-03-22T08:49:54.583Z,932.20
2018-03-22T08:50:54.576Z,932.21
2018-03-22T08:51:54.571Z,932.26
2018-03-22T08:52:54.570Z,932.24
2018-03-22T08:53:54.556Z,932.25
2018-03-22T08:54:54.553Z,932.27
2018-03-22T08:55:54.548Z,932.29
2018-03-22T08:56:54.531Z,932.29
2018-03-22T08:57:54.530Z,932.27
2018-03-22T08:58:54.541Z,932.33
2018-03-22T08:59:54.522Z,932.33
2018-03-22T09:00:54.511Z,932.36
2018-03-22T09:01:54.503Z,932.37
2018-03-22T09:02:54.497Z,932.38
2018-03-22T09:03:54.490Z,932.37
2018-03-22T09:04:54.483Z,932.39
2018-03-22T09:05:54.476Z,932.41
2018-03-22T09:06:54.470Z,932.40
2018-03-22T09:07:54.459Z,932.41
2018-03-22T09:08:54.455Z,932.43
2018-03-22T09:09:54.453Z,932.46
2018-03-22T09:10:54.492Z,932.48
2018-03-22T09:11:54.444Z,932.48
2018-03-22T09:12:54.431Z,932.50
2018-03-22T09:13:54.426Z,932.55
2018-03-22T09:14:54.415Z,932.54
2018-03-22T09:15:54.409Z,932.54
2018-03-22T09:16:54.395Z,932.54
2018-03-22T09:17:54.405Z,932.53
2018-03-22T09:18:54.390Z,932.60
2018-03-22T09:19:54.382Z,932.64
2018-03-22T09:20:54.368Z,932.65
2018-03-22T09:21:54.371Z,932.67
2018-03-22T09:22:54.361Z,932.72
2018-03-22T09:23:54.355Z,932.69
2018-03-22T09:24:54.346Z,932.60
2018-03-22T09:25:54.334Z,932.62
2018-03-22T09:26:54.333Z,932.62
2018-03-22T09:27:54.365Z,932.63
2018-03-22T09:28:54.326Z,932.60
2018-03-22T09:29:54.317Z,932.61
2018-03-22T09:30:54.300Z,932.65
2018-03-22T09:31:54.302Z,932.65
2018-03-22T09:32:54.292Z,932.70
2018-03-22T09:33:54.286Z,932.72
2018-03-22T09:34:54.316Z,932.73
2018-03-22T09:35:54.273Z,932.78
2018-03-22T09:36:54.265Z,932.75
2018-03-22T09:37:54.263Z,932.81
2018-03-22T09:38:54.255Z,932.81
2018-03-22T09:39:54.245Z,932.84
2018-03-22T09:40:54.238Z,932.84
2018-03-22T09:41:54.234Z,932.82
2018-03-22T09:42:54.225Z,932.82
2018-03-22T09:43:54.223Z,932.82
2018-03-22T09:44:54.221Z,932.85
2018-03-22T09:45:54.205Z,932.87
2018-03-22T09:46:54.209Z,932.88
2018-03-22T09:47:54.192Z,932.95
2018-03-22T09:48:54.185Z,932.96
2018-03-22T09:49:54.179Z,933.03
2018-03-22T09:50:54.176Z,933.01
2018-03-22T09:51:54.165Z,933.02
2018-03-22T09:52:54.160Z,933.01
2018-03-22T09:53:54.152Z,933.05
2018-03-22T09:54:54.140Z,933.09
2018-03-22T09:55:54.134Z,933.07
2018-03-22T09:56:54.169Z,933.09
2018-03-22T09:57:54.125Z,933.08
2018-03-22T09:58:54.120Z,933.10
2018-03-22T09:59:54.124Z,933.10
2018-03-22T10:00:54.107Z,933.11
2018-03-22T10:01:54.100Z,933.13
2018-03-22T10:02:54.157Z,933.14
2018-03-22T10:03:54.084Z,933.19
2018-03-22T10:04:54.080Z,933.16
2018-03-22T10:05:54.073Z,933.16
2018-03-22T10:06:54.061Z,933.14
2018-03-22T10:07:54.056Z,933.15
2018-03-22T10:08:54.068Z,933.13
2018-03-22T10:09:54.047Z,933.14
2018-03-22T10:10:54.042Z,933.11
2018-03-22T10:11:54.035Z,933.14
2018-03-22T10:12:54.047Z,933.13
2018-03-22T10:13:54.020Z,933.12
2018-03-22T10:14:54.015Z,933.20
2018-03-22T10:15:54.019Z,933.19
2018-03-22T10:16:54.017Z,933.21
2018-03-22T10:17:53.998Z,933.24
2018-03-22T10:18:53.992Z,933.19
2018-03-22T10:19:54.002Z,933.18
2018-03-22T10:20:53.985Z,933.21
2018-03-22T10:21:53.984Z,933.18
2018-03-22T10:22:53.978Z,933.16
2018-03-22T10:23:53.957Z,933.19
2018-03-22T10:24:53.954Z,933.23
2018-03-22T10:25:53.947Z,933.24
2018-03-22T10:26:53.938Z,933.30
2018-03-22T10:27:53.950Z,933.23
2018-03-22T10:28:53.943Z,933.25
2018-03-22T10:29:53.922Z,933.27
2018-03-22T10:30:53.917Z,933.26
2018-03-22T10:31:53.926Z,933.26
2018-03-22T10:32:53.918Z,933.28
2018-03-22T10:33:53.897Z,933.33
2018-03-22T10:34:53.883Z,933.35
2018-03-22T10:35:53.935Z,933.38
2018-03-22T10:36:53.880Z,933.40
2018-03-22T10:37:53.888Z,933.40
2018-03-22T10:38:53.856Z,933.45
2018-03-22T10:39:53.851Z,933.41
2018-03-22T10:40:53.859Z,933.47
2018-03-22T10:41:53.847Z,933.46
2018-03-22T10:42:53.841Z,933.47
2018-03-22T10:43:53.835Z,933.50
2018-03-22T10:44:53.829Z,933.52
2018-03-22T10:45:53.814Z,933.53
2018-03-22T10:46:53.812Z,933.54
2018-03-22T10:47:53.826Z,933.57
2018-03-22T10:48:53.796Z,933.57
2018-03-22T10:49:53.804Z,933.56
2018-03-22T10:50:53.797Z,933.55
2018-03-22T10:51:53.787Z,933.62
2018-03-22T10:52:53.775Z,933.61
2018-03-22T10:53:53.774Z,933.60
2018-03-22T10:54:53.776Z,933.59
2018-03-22T10:55:53.758Z,933.60
2018-03-22T10:56:53.754Z,933.61
2018-03-22T10:57:53.749Z,933.62
2018-03-22T10:58:53.733Z,933.63
2018-03-22T10:59:53.737Z,933.64
2018-03-22T11:00:53.726Z,933.64
2018-03-22T11:01:53.719Z,933.62
2018-03-22T11:02:53.718Z,933.66
2018-03-22T11:03:53.720Z,933.63
2018-03-22T11:04:53.705Z,933.66
2018-03-22T11:05:53.715Z,933.62
2018-03-22T11:06:53.688Z,933.64
2018-03-22T11:07:53.688Z,933.61
2018-03-22T11:08:53.682Z,933.62
2018-03-22T11:09:53.672Z,933.65
2018-03-22T11:10:53.670Z,933.65
2018-03-22T11:11:53.679Z,933.68
2018-03-22T11:12:53.654Z,933.71
2018-03-22T11:13:53.680Z,933.69
2018-03-22T11:14:53.641Z,933.71
2018-03-22T11:15:53.653Z,933.76
2018-03-22T11:16:53.632Z,933.75
2018-03-22T11:17:53.626Z,933.80
2018-03-22T11:18:53.618Z,933.85
2018-03-22T11:19:53.614Z,933.81
2018-03-22T11:20:53.608Z,933.86
2018-03-22T11:21:53.601Z,933.80
2018-03-22T11:22:53.608Z,933.81
2018-03-22T11:23:53.592Z,933.75
2018-03-22T11:24:53.588Z,933.80
2018-03-22T11:25:53.578Z,933.82
2018-03-22T11:26:53.588Z,933.76
2018-03-22T11:27:53.567Z,933.77
2018-03-22T11:28:53.550Z,933.75
2018-03-22T11:29:53.550Z,933.75
2018-03-22T11:30:53.563Z,933.76
2018-03-22T11:31:53.558Z,933.79
2018-03-22T11:32:53.533Z,933.85
2018-03-22T11:33:53.529Z,933.85
2018-03-22T11:34:53.520Z,933.88
2018-03-22T11:35:53.527Z,933.92
2018-03-22T11:36:53.526Z,933.93
2018-03-22T11:37:53.511Z,933.93
2018-03-22T11:38:53.490Z,933.92
2018-03-22T11:39:53.491Z,933.93
2018-03-22T11:40:53.482Z,933.92
2018-03-22T11:41:53.476Z,933.90
2018-03-22T11:42:53.473Z,933.92
2018-03-22T11:43:53.468Z,933.88
2018-03-22T11:44:53.481Z,933.91
2018-03-22T11:45:53.451Z,933.91
2018-03-22T11:46:53.449Z,933.92
2018-03-22T11:47:53.445Z,933.94
2018-03-22T11:48:53.436Z,933.95
2018-03-22T11:49:53.430Z,933.98
2018-03-22T11:50:53.484Z,933.98
2018-03-22T11:51:53.423Z,934.00
2018-03-22T11:52:53.411Z,933.98
2018-03-22T11:53:53.397Z,934.00
2018-03-22T11:54:53.398Z,934.03
2018-03-22T11:55:53.560Z,933.99
2018-03-22T11:56:53.384Z,934.06
2018-03-22T11:57:53.378Z,934.01
2018-03-22T11:58:53.384Z,934.03
2018-03-22T11:59:53.358Z,934.07
2018-03-22T12:00:53.370Z,934.05
2018-03-22T12:01:53.364Z,934.08
2018-03-22T12:02:53.346Z,934.07
2018-03-22T12:03:53.357Z,934.07
2018-03-22T12:04:53.350Z,934.08
2018-03-22T12:05:53.328Z,934.09
2018-03-22T12:06:53.321Z,934.07
2018-03-22T12:07:53.315Z,934.08
2018-03-22T12:08:53.309Z,934.10
2018-03-22T12:09:53.318Z,934.10
2018-03-22T12:10:53.297Z,934.11
2018-03-22T12:11:53.292Z,934.12
2018-03-22T12:12:53.285Z,934.11
2018-03-22T12:13:53.274Z,934.15
2018-03-22T12:14:53.273Z,934.14
2018-03-22T12:15:53.262Z,934.15
2018-03-22T12:16:53.256Z,934.16
2018-03-22T12:17:53.253Z,934.16
2018-03-22T12:18:53.263Z,934.15
2018-03-22T12:19:53.242Z,934.19
2018-03-22T12:20:53.236Z,934.16
2018-03-22T12:21:53.225Z,934.19
2018-03-22T12:22:53.239Z,934.19
2018-03-22T12:23:53.214Z,934.18
2018-03-22T12:24:53.201Z,934.18
2018-03-22T12:25:53.221Z,934.18
2018-03-22T12:26:53.195Z,934.21
2018-03-22T12:27:53.185Z,934.24
2018-03-22T12:28:53.188Z,934.23